Somerset, NJ - U.S.A.

40° 30' 13"N, 74° 29' 17"W, Elevation 55 ft.

Monday, December 22, 2014
7:46:00 PM (Eastern)

356th day of the year

Updated and refreshed every 2 minutes. Weather computer in use: Davis Vantage PRO2 Plus


Current Weather:

Current Today's Highs and Lows
Temperature 42.2°F (5.7°C) ↑ 42.2° 7:42 PM
34.5° 2:06 AM
Dew Point 39.9°F (4.4°C) ↑ 39.9° 7:42 PM
29.1° 12:00 AM
Humidity 91% ↑ 91% 11:48 AM
80% 12:00 AM
Wind Gust N 1 mph N 7 10:59 AM
N 0 12:00 AM
Wind Speed N 0 mph
Calm (0)
N 2 11:01 AM
N 0 12:00 AM
Precipitation 0.00" (0.00 mm) 1
Last 24 hours 0.00"
Instantaneous rate 0.00"/hr
Storm total 0.00"
0.00"2 12:00 AM
0.00"2 12:00 AM
Barometer 30.188" (1022.3 mb)
Falling
30.340" 2:44 AM
30.188" 7:44 PM
Wind Chill Gust 42°F (6°C) 42° 7:42 PM
29° 1:35 AM
Wind Chill Avg 42°F (6°C) 42° 7:42 PM
35° 2:06 AM
Heat Index 42°F (5.6°C) 42° 7:24 PM
34° 12:00 AM
Sunshine 0 W/m2
Sunshine minutes 0
111 10:44 AM
0 12:00 AM
UV Index  0.0 0.0 12:00 AM
0.0 12:00 AM
1. Daily total rainfall.
2. Maximum and minimum rainfall are the instantaneous rainfall rates.

'KSOM' METAR REPORT:

METAR KEBR 230046Z AUTO 01000KT 06/04 A3019 RMK AO1 SLP223 T00570044 

Yesterday's Weather and More...

Webcam
EBWeather Image

Video - Last 3 Hours

Video - Yesterday

Video - Last 3 Days

NJ Region Surface Map
NJ Sfc Map

Weather Data from Somerset, NJ

Data generated by WxSolution Version 1.8.7, Build 2013.11.03.